NFTL/HPA METAR and TAF weather

Enter ICAO airport designator
Station Type Date Time Source
NFTL METAR 2021/04/12 02:00 UTC NOAA

NFTL 120200Z VRB02KT 9999 SCT017TCU BKN100 27/23 Q1010


Station Type Date Time Source
NFTL Decoded METAR 2021/04/12 02:00 UTC NOAA

Haapai, Tonga (NFTL) 19-48S 174-21W 3M
Apr 11, 2021 - 10:00 PM EDT / 2021.04.12 0200 UTC
Wind: Variable at 2 MPH (2 KT):0
Visibility: greater than 7 mile(s):0
Sky conditions: mostly cloudy
Weather: Towering cumulus clouds observed
Temperature: 80 F (27 C)
Dew Point: 73 F (23 C)
Relative Humidity: 78%
Pressure (altimeter): 29.83 in. Hg (1010 hPa)
ob: NFTL 120200Z VRB02KT 9999 SCT017TCU BKN100 27/23 Q1010
cycle: 2

Station Type Date Time Source
NFTL TAF 2018/02/21 17:19 UTC NOAA

TAF NFTL 211605Z 2117/2208 12010KT 9999 SCT018

Example: see airport list